• Join FlightAware (Why Join?)
  • Login
  • US Flag 
12:39PM EST


 

Airport Tracker/Info


-or-


 

Live Flight TrackerFlight Track Log ✈ EJA922 ✈ 15-Feb-2014 ✈ KHOU - KPWA

Flight Track Log - Related Links

Times and Time Zones

All times are in EST time to prevent confusion due to time zone crossing. See the EJA922 flight status page for this flight to view local times or setup timezone preferences in your user account.

Time Position Orientation Groundspeed Altitude Reporting Facility
EST Latitude Longitude Course Direction KTS MPH feet Rate Location/Type
05:56PM 29.6372 -95.2864 68° East 171 197 600  Level Houston Center
05:57PM 29.6489 -95.2539 68° East 233 268 4,600 2,940 Climbing Houston Center
05:58PM 29.6572 -95.2561 347° North 236 272 4,900 3,780 Climbing Houston Center
05:58PM 29.7186 -95.2814 340° North 261 300 8,500 3,840 Climbing Houston Center
05:59PM 29.7253 -95.2817 358° North 249 287 8,900 2,880 Climbing Houston Center
06:00PM 29.8114 -95.3211 338° Northwest 286 329 12,200 2,700 Climbing Houston Center
06:01PM 29.8906 -95.3567 339° North 339 390 14,600 2,100 Climbing Houston Center
06:02PM 30.0019 -95.4075 338° Northwest 357 411 16,600 1,560 Climbing Houston Center
06:03PM 30.0975 -95.4514 338° Northwest 366 421 17,900 1,320 Climbing Houston Center
06:04PM 30.1936 -95.4944 339° North 370 426 19,400 1,380 Climbing Houston Center
06:05PM 30.2928 -95.5397 338° Northwest 378 435 20,900 720 Climbing Houston Center
06:06PM 30.3919 -95.5844 339° North 382 440 21,000  Climbing Houston Center
06:07PM 30.4992 -95.6358 338° Northwest 413 475 21,000 600 Level Houston Center
06:08PM 30.6050 -95.6886 337° Northwest 414 476 22,300 1,560 Climbing Houston Center
06:09PM 30.7197 -95.7511 335° Northwest 405 466 24,300 1,740 Climbing Houston Center
06:10PM 30.8208 -95.8042 336° Northwest 398 458 25,900 1,380 Climbing Houston Center
06:11PM 30.9228 -95.8600 335° Northwest 402 463 27,200 1,080 Climbing Houston Center
06:12PM 31.0281 -95.9161 335° Northwest 412 474 28,200 1,080 Climbing Houston Center
06:13PM 31.1603 -95.9825 337° Northwest 425 489 29,500 1,080 Climbing Houston Center
06:14PM 31.2794 -96.0286 342° North 442 509 30,500 960 Climbing Houston Center
06:15PM 31.4006 -96.0747 342° North 452 520 31,500 960 Climbing Houston Center
06:16PM 31.5267 -96.1244 341° North 461 531 32,500 900 Climbing Houston Center
06:17PM 31.6294 -96.1639 342° North 467 537 33,300 720 Climbing Fort Worth Center
06:18PM 31.7572 -96.2131 342° North 475 547 34,000 300 Climbing Fort Worth Center
06:19PM 31.8939 -96.2675 341° North 484 557 34,000 -60 Level Fort Worth Center
06:20PM 32.0225 -96.3178 342° North 488 562 33,900 -60 Descending Fort Worth Center
06:21PM 32.1778 -96.3739 343° North 487 560 33,900  Level Fort Worth Center
06:22PM 32.3072 -96.4206 343° North 488 562 33,900  Level Fort Worth Center
06:23PM 32.4350 -96.4681 343° North 484 557 33,900  Level Fort Worth Center
06:24PM 32.5644 -96.5150 343° North 488 562 34,000  Climbing Fort Worth Center
06:25PM 32.6922 -96.5625 343° North 484 557 34,000 -60 Level Fort Worth Center
06:26PM 32.8211 -96.6092 343° North 486 559 33,900 -60 Descending Fort Worth Center
06:27PM 32.9733 -96.6669 342° North 483 556 33,900  Level Fort Worth Center
06:28PM 33.1014 -96.7142 343° North 485 558 34,000  Climbing Fort Worth Center
06:29PM 33.2286 -96.7611 343° North 484 557 33,900 -300 Descending Fort Worth Center
06:31PM 33.3547 -96.8100 342° North 480 552 33,400 -1,320 Descending Fort Worth Center
06:32PM 33.5039 -96.8647 343° North 471 542 31,200 -1,980 Descending Fort Worth Center
06:33PM 33.6286 -96.9106 343° North 472 543 29,400 -1,740 Descending Fort Worth Center
06:34PM 33.7517 -96.9583 342° North 468 539 27,700 -1,680 Descending Fort Worth Center
06:35PM 33.8694 -97.0047 342° North 452 520 26,000 -1,620 Descending Fort Worth Center
06:36PM 33.9853 -97.0481 343° North 439 505 24,400 -1,620 Descending Fort Worth Center
06:37PM 34.1106 -97.0969 342° North 436 502 22,700 -1,620 Descending Fort Worth Center
06:38PM 34.2228 -97.1361 344° North 422 486 21,100 -1,560 Descending Fort Worth Center
06:39PM 34.3325 -97.1772 343° North 414 476 19,500 -1,560 Descending Fort Worth Center
06:40PM 34.4403 -97.2219 341° North 411 473 18,000 -1,620 Descending Fort Worth Center
06:41PM 34.5664 -97.2703 342° North 399 459 16,200 -1,620 Descending Fort Worth Center
06:42PM 34.6683 -97.3072 343° North 387 445 14,700 -1,500 Descending Fort Worth Center
06:42PM 34.7044 -97.3200 344° North 382 440 14,300 -1,380 Descending Fort Worth Center
06:43PM 34.7600 -97.3436 341° North 388 447 13,500 -1,320 Descending Fort Worth Center
06:43PM 34.7714 -97.3472 345° North 387 445 13,300 -1,740 Descending Fort Worth Center
06:44PM 34.8678 -97.3811 344° North 375 432 11,800 -1,560 Descending Fort Worth Center
06:44PM 34.8719 -97.3842 329° Northwest 381 438 11,700 -1,140 Descending Fort Worth Center
06:45PM 34.9561 -97.4144 344° North 318 366 10,700 -1,020 Descending Fort Worth Center
06:45PM 34.9594 -97.4156 345° North 339 390 10,700 -840 Level Fort Worth Center
06:46PM 35.0064 -97.4314 345° North 259 298 10,100 -1,560 Descending Fort Worth Center
06:46PM 35.0450 -97.4450 344° North 277 319 9,100 -2,040 Descending Fort Worth Center
06:47PM 35.0750 -97.4581 340° North 249 287 8,100 -1,980 Descending Fort Worth Center
06:47PM 35.1139 -97.4706 345° North 261 300 7,100 -1,620 Descending Fort Worth Center
06:48PM 35.1672 -97.4908 343° North 263 303 6,000 -1,080 Descending Fort Worth Center
06:48PM 35.1831 -97.4972 342° North 261 300 6,000  Level Fort Worth Center
06:49PM 35.2339 -97.5203 340° North 256 295 6,000  Level Fort Worth Center
06:49PM 35.2550 -97.5281 343° North 257 296 6,000  Level Fort Worth Center
06:50PM 35.3003 -97.5475 341° North 251 289 6,000  Level Fort Worth Center
06:50PM 35.3200 -97.5553 342° North 249 287 6,000 -240 Level Fort Worth Center
06:51PM 35.3722 -97.5683 348° North 248 285 5,800 -540 Descending Fort Worth Center
06:51PM 35.3919 -97.5725 350° North 247 284 5,500 -1,500 Descending Fort Worth Center
06:52PM 35.4386 -97.5775 355° North 248 285 4,300 -1,500 Descending Fort Worth Center
06:52PM 35.4606 -97.5803 354° North 251 289 4,000 -900 Descending Fort Worth Center
06:53PM 35.5028 -97.5847 355° North 249 287 3,500 -1,020 Descending Fort Worth Center
06:53PM 35.5314 -97.5869 356° North 238 274 3,000 -840 Descending Fort Worth Center
06:54PM 35.5647 -97.5919 353° North 223 257 2,700 -540 Descending Fort Worth Center
06:54PM 35.5853 -97.6019 338° Northwest 203 234 2,500 -480 Descending Fort Worth Center
06:55PM 35.5864 -97.6347 272° West 131 151 2,200 -600 Descending Fort Worth Center
06:55PM 35.5758 -97.6442 216° Southwest 140 161 1,900 -720 Descending Fort Worth Center
06:56PM 35.5539 -97.6453 182° South 134 154 1,500 -600 Descending Fort Worth Center
06:56PM 35.5425 -97.6456 181° South 133 153 1,300 -480 Descending Fort Worth Center